Time,TemperatureF,DewpointF,PressureIn,WindDirection,WindDirectionDegrees,WindSpeedMPH,WindSpeedGustMPH,Humidity,HourlyPrecipIn,Conditions,Clouds,dailyrainin,SoftwareType,DateUTC
2013-01-05 00:02:00,38.4,35.7,30.32,North,0,0.0,0.0,90,0.00,,,0.00,WUHU216HW,2013-01-05 06:02:00,
2013-01-05 00:07:00,38.4,35.7,30.32,North,0,0.0,0.0,90,0.00,,,0.00,WUHU216HW,2013-01-05 06:07:00,
2013-01-05 00:12:00,38.4,35.7,30.32,North,0,0.0,0.0,90,0.00,,,0.00,WUHU216HW,2013-01-05 06:12:00,
2013-01-05 00:17:00,38.4,35.7,30.32,North,0,0.0,0.0,90,0.00,,,0.00,WUHU216HW,2013-01-05 06:17:00,
2013-01-05 00:22:00,38.4,35.7,30.32,North,0,0.0,0.0,90,0.00,,,0.00,WUHU216HW,2013-01-05 06:22:00,
2013-01-05 00:27:00,38.4,35.7,30.31,North,0,0.0,0.0,90,0.00,,,0.00,WUHU216HW,2013-01-05 06:27:00,
2013-01-05 00:32:00,38.4,35.7,30.31,North,0,0.0,0.0,90,0.00,,,0.00,WUHU216HW,2013-01-05 06:32:00,
2013-01-05 00:56:00,38.6,35.9,30.31,North,0,0.0,0.0,90,0.02,,,0.00,WUHU216HW,2013-01-05 06:56:00,
2013-01-05 01:40:00,38.4,35.7,30.31,North,0,0.0,0.0,90,0.04,,,0.02,WUHU216HW,2013-01-05 07:40:00,
2013-01-05 01:45:00,38.4,35.7,30.31,North,0,0.0,0.0,90,0.04,,,0.04,WUHU216HW,2013-01-05 07:45:00,
2013-01-05 01:50:00,38.4,35.7,30.31,North,0,0.0,0.0,90,0.04,,,0.04,WUHU216HW,2013-01-05 07:50:00,
2013-01-05 02:10:00,38.4,35.7,30.30,North,0,0.0,0.0,91,0.04,,,0.04,WUHU216HW,2013-01-05 08:10:00,
2013-01-05 02:29:00,38.3,35.6,30.30,North,0,0.0,0.0,91,0.00,,,0.04,WUHU216HW,2013-01-05 08:29:00,
2013-01-05 03:18:00,38.4,36.0,30.31,North,0,0.0,0.0,91,0.00,,,0.04,WUHU216HW,2013-01-05 09:18:00,
2013-01-05 04:11:00,38.4,36.0,30.29,North,0,0.0,0.0,91,0.00,,,0.04,WUHU216HW,2013-01-05 10:11:00,
2013-01-05 04:42:00,38.8,36.4,30.29,North,0,0.0,0.0,91,0.00,,,0.04,WUHU216HW,2013-01-05 10:42:00,
2013-01-05 05:48:00,38.8,36.4,30.27,North,0,0.0,0.0,91,0.00,,,0.04,WUHU216HW,2013-01-05 11:48:00,
2013-01-05 06:31:00,38.4,36.0,30.27,North,0,0.0,0.0,91,0.00,,,0.04,WUHU216HW,2013-01-05 12:31:00,
2013-01-05 07:10:00,38.8,36.4,30.29,North,0,0.0,0.0,91,0.00,,,0.04,WUHU216HW,2013-01-05 13:10:00,
2013-01-05 07:15:00,38.8,36.4,30.28,North,0,0.0,0.0,91,0.00,,,0.04,WUHU216HW,2013-01-05 13:15:00,
2013-01-05 07:20:00,38.8,36.4,30.28,North,0,0.0,0.0,91,0.00,,,0.04,WUHU216HW,2013-01-05 13:20:00,
2013-01-05 07:29:00,38.8,36.4,30.29,North,0,0.0,0.0,91,0.00,,,0.04,WUHU216HW,2013-01-05 13:29:00,
2013-01-05 07:42:00,39.0,36.5,30.29,North,0,0.0,0.0,91,0.00,,,0.04,WUHU216HW,2013-01-05 13:42:00,
2013-01-05 07:47:00,39.0,36.5,30.29,North,0,0.0,0.0,91,0.00,,,0.04,WUHU216HW,2013-01-05 13:47:00,
2013-01-05 07:52:00,39.0,36.5,30.29,North,0,0.0,0.0,91,0.00,,,0.04,WUHU216HW,2013-01-05 13:52:00,
2013-01-05 09:15:00,41.1,38.4,30.30,North,0,0.0,0.0,90,0.00,,,0.04,WUHU216HW,2013-01-05 15:15:00,
2013-01-05 09:28:00,41.7,39.2,30.30,North,0,0.0,0.0,91,0.00,,,0.04,WUHU216HW,2013-01-05 15:28:00,
2013-01-05 09:54:00,42.6,39.3,30.29,North,0,0.0,0.0,88,0.00,,,0.04,WUHU216HW,2013-01-05 15:54:00,
2013-01-05 09:59:00,42.8,39.1,30.30,North,0,0.0,0.0,87,0.00,,,0.04,WUHU216HW,2013-01-05 15:59:00,
2013-01-05 10:04:00,42.9,39.3,30.30,North,0,0.0,0.0,87,0.00,,,0.04,WUHU216HW,2013-01-05 16:04:00,
2013-01-05 10:09:00,42.9,39.3,30.30,North,0,0.0,0.0,87,0.00,,,0.04,WUHU216HW,2013-01-05 16:09:00,
2013-01-05 10:14:00,43.3,39.4,30.30,North,0,0.0,0.0,86,0.00,,,0.04,WUHU216HW,2013-01-05 16:14:00,
2013-01-05 10:19:00,43.3,39.4,30.30,North,0,0.0,0.0,86,0.00,,,0.04,WUHU216HW,2013-01-05 16:19:00,
2013-01-05 10:24:00,43.7,39.7,30.30,North,0,0.0,0.0,86,0.00,,,0.04,WUHU216HW,2013-01-05 16:24:00,
2013-01-05 10:29:00,43.8,39.9,30.30,North,0,0.0,0.0,84,0.00,,,0.04,WUHU216HW,2013-01-05 16:29:00,
2013-01-05 10:34:00,43.8,39.9,30.30,North,0,0.0,0.0,84,0.00,,,0.04,WUHU216HW,2013-01-05 16:34:00,
2013-01-05 10:44:00,43.8,38.7,30.29,North,0,0.0,0.0,82,0.00,,,0.04,WUHU216HW,2013-01-05 16:44:00,
2013-01-05 10:49:00,44.4,39.5,30.29,North,0,0.0,0.0,83,0.00,,,0.04,WUHU216HW,2013-01-05 16:49:00,
2013-01-05 10:54:00,44.7,39.9,30.29,North,0,0.0,0.0,81,0.00,,,0.04,WUHU216HW,2013-01-05 16:54:00,
2013-01-05 10:59:00,44.7,39.9,30.29,North,0,0.0,0.0,81,0.00,,,0.04,WUHU216HW,2013-01-05 16:59:00,
2013-01-05 11:04:00,44.7,39.9,30.29,North,0,0.0,0.0,81,0.00,,,0.04,WUHU216HW,2013-01-05 17:04:00,
2013-01-05 11:13:00,44.9,39.8,30.29,North,0,0.0,0.0,82,0.00,,,0.04,WUHU216HW,2013-01-05 17:13:00,
2013-01-05 11:37:00,46.5,40.4,30.27,North,0,0.0,0.0,79,0.00,,,0.04,WUHU216HW,2013-01-05 17:37:00,
2013-01-05 11:43:00,46.5,40.4,30.27,North,0,0.0,0.0,79,0.00,,,0.04,WUHU216HW,2013-01-05 17:43:00,
2013-01-05 11:54:00,46.7,40.9,30.26,North,0,0.0,0.0,79,0.00,,,0.04,WUHU216HW,2013-01-05 17:54:00,
2013-01-05 11:59:00,46.7,40.9,30.26,North,0,0.0,0.0,79,0.00,,,0.04,WUHU216HW,2013-01-05 17:59:00,
2013-01-05 13:20:00,50.9,41.5,30.21,North,0,0.0,0.0,70,0.00,,,0.04,WUHU216HW,2013-01-05 19:20:00,
2013-01-05 13:25:00,52.1,42.7,30.20,North,0,0.0,0.0,70,0.00,,,0.04,WUHU216HW,2013-01-05 19:25:00,
2013-01-05 13:30:00,52.5,41.8,30.20,North,0,0.0,0.0,67,0.00,,,0.04,WUHU216HW,2013-01-05 19:30:00,
2013-01-05 13:35:00,52.8,42.6,30.20,North,0,0.0,0.0,68,0.00,,,0.04,WUHU216HW,2013-01-05 19:35:00,
2013-01-05 13:40:00,52.8,42.6,30.20,North,0,0.0,0.0,68,0.00,,,0.04,WUHU216HW,2013-01-05 19:40:00,
2013-01-05 13:53:00,54.6,42.7,30.19,North,0,0.0,0.0,64,0.00,,,0.04,WUHU216HW,2013-01-05 19:53:00,
2013-01-05 13:58:00,54.6,42.7,30.19,North,0,0.0,0.0,64,0.00,,,0.04,WUHU216HW,2013-01-05 19:58:00,
2013-01-05 14:11:00,54.6,41.8,30.18,North,0,0.0,0.0,63,0.00,,,0.04,WUHU216HW,2013-01-05 20:11:00,
2013-01-05 14:16:00,54.6,41.8,30.18,North,0,0.0,0.0,63,0.00,,,0.04,WUHU216HW,2013-01-05 20:16:00,
2013-01-05 14:29:00,55.5,42.3,30.18,North,0,0.0,0.0,61,0.00,,,0.04,WUHU216HW,2013-01-05 20:29:00,
2013-01-05 14:34:00,55.2,41.9,30.18,North,0,0.0,0.0,61,0.00,,,0.04,WUHU216HW,2013-01-05 20:34:00,
2013-01-05 14:39:00,55.2,41.9,30.18,North,0,0.0,0.0,61,0.00,,,0.04,WUHU216HW,2013-01-05 20:39:00,
2013-01-05 14:44:00,55.0,41.8,30.17,North,0,0.0,0.0,60,0.00,,,0.04,WUHU216HW,2013-01-05 20:44:00,
2013-01-05 14:49:00,55.2,41.9,30.17,North,0,0.0,0.0,61,0.00,,,0.04,WUHU216HW,2013-01-05 20:49:00,
2013-01-05 14:54:00,55.2,41.9,30.17,North,0,0.0,0.0,61,0.00,,,0.04,WUHU216HW,2013-01-05 20:54:00,
2013-01-05 14:59:00,54.5,40.9,30.17,North,0,0.0,0.0,60,0.00,,,0.04,WUHU216HW,2013-01-05 20:59:00,
2013-01-05 15:04:00,55.0,41.8,30.17,North,0,0.0,0.0,61,0.00,,,0.04,WUHU216HW,2013-01-05 21:04:00,
2013-01-05 15:09:00,55.0,41.8,30.17,North,0,0.0,0.0,60,0.00,,,0.04,WUHU216HW,2013-01-05 21:09:00,
2013-01-05 15:14:00,55.0,41.8,30.17,North,0,0.0,0.0,59,0.00,,,0.04,WUHU216HW,2013-01-05 21:14:00,
2013-01-05 15:19:00,55.5,41.4,30.17,North,0,0.0,0.0,59,0.00,,,0.04,WUHU216HW,2013-01-05 21:19:00,
2013-01-05 15:24:00,55.9,41.7,30.17,North,0,0.0,0.0,59,0.00,,,0.04,WUHU216HW,2013-01-05 21:24:00,
2013-01-05 15:29:00,55.9,41.7,30.17,North,0,0.0,0.0,59,0.00,,,0.04,WUHU216HW,2013-01-05 21:29:00,
2013-01-05 15:58:00,54.8,41.2,30.17,North,0,0.0,0.0,60,0.00,,,0.04,WUHU216HW,2013-01-05 21:58:00,
2013-01-05 16:03:00,54.3,40.7,30.17,North,0,0.0,0.0,60,0.00,,,0.04,WUHU216HW,2013-01-05 22:03:00,
2013-01-05 16:08:00,54.3,40.7,30.17,North,0,0.0,0.0,60,0.00,,,0.04,WUHU216HW,2013-01-05 22:08:00,
2013-01-05 16:38:00,51.6,40.2,30.17,North,0,0.0,0.0,65,0.00,,,0.04,WUHU216HW,2013-01-05 22:38:00,
2013-01-05 16:43:00,51.6,40.2,30.17,North,0,0.0,0.0,65,0.00,,,0.04,WUHU216HW,2013-01-05 22:43:00,
2013-01-05 16:57:00,51.4,40.0,30.17,North,0,0.0,0.0,66,0.00,,,0.04,WUHU216HW,2013-01-05 22:57:00,
2013-01-05 17:18:00,50.5,39.9,30.17,North,0,0.0,0.0,68,0.00,,,0.04,WUHU216HW,2013-01-05 23:18:00,
2013-01-05 17:23:00,50.3,40.2,30.18,North,0,0.0,0.0,68,0.00,,,0.04,WUHU216HW,2013-01-05 23:23:00,
2013-01-05 17:28:00,50.3,40.2,30.18,North,0,0.0,0.0,68,0.00,,,0.04,WUHU216HW,2013-01-05 23:28:00,
2013-01-05 17:46:00,48.9,39.9,30.18,North,0,0.0,0.0,71,0.00,,,0.04,WUHU216HW,2013-01-05 23:46:00,
2013-01-05 18:15:00,45.6,38.5,30.18,North,0,0.0,0.0,76,0.00,,,0.04,WUHU216HW,2013-01-06 00:15:00,
2013-01-05 18:34:00,44.0,37.6,30.19,North,0,0.0,0.0,78,0.00,,,0.04,WUHU216HW,2013-01-06 00:34:00,
2013-01-05 18:39:00,43.8,37.4,30.19,North,0,0.0,0.0,80,0.00,,,0.04,WUHU216HW,2013-01-06 00:39:00,
2013-01-05 18:44:00,43.8,37.4,30.19,North,0,0.0,0.0,80,0.00,,,0.04,WUHU216HW,2013-01-06 00:44:00,
2013-01-05 18:52:00,43.7,37.9,30.20,North,0,0.0,0.0,80,0.00,,,0.04,WUHU216HW,2013-01-06 00:52:00,
2013-01-05 18:57:00,43.7,37.9,30.19,North,0,0.0,0.0,81,0.00,,,0.04,WUHU216HW,2013-01-06 00:57:00,
2013-01-05 19:02:00,43.7,37.9,30.19,North,0,0.0,0.0,81,0.00,,,0.04,WUHU216HW,2013-01-06 01:02:00,
2013-01-05 19:07:00,43.7,37.9,30.20,North,0,0.0,0.0,81,0.00,,,0.04,WUHU216HW,2013-01-06 01:07:00,
2013-01-05 19:12:00,43.7,37.9,30.20,North,0,0.0,0.0,81,0.00,,,0.04,WUHU216HW,2013-01-06 01:12:00,
2013-01-05 19:29:00,42.4,36.9,30.20,North,0,0.0,0.0,81,0.00,,,0.04,WUHU216HW,2013-01-06 01:29:00,
2013-01-05 20:35:00,41.7,37.7,30.21,North,0,0.0,0.0,86,0.00,,,0.04,WUHU216HW,2013-01-06 02:35:00,
2013-01-05 20:40:00,41.7,37.7,30.21,North,0,0.0,0.0,86,0.00,,,0.04,WUHU216HW,2013-01-06 02:40:00,
2013-01-05 21:01:00,41.1,37.5,30.21,North,0,0.0,0.0,87,0.00,,,0.04,WUHU216HW,2013-01-06 03:01:00,
2013-01-05 21:24:00,40.1,36.5,30.22,North,0,0.0,0.0,87,0.00,,,0.04,WUHU216HW,2013-01-06 03:24:00,
2013-01-05 22:30:00,35.4,31.8,30.23,North,0,0.0,0.0,87,0.00,,,0.04,WUHU216HW,2013-01-06 04:30:00,
2013-01-05 22:54:00,37.0,33.7,30.23,North,0,0.0,0.0,88,0.00,,,0.04,WUHU216HW,2013-01-06 04:54:00,
2013-01-05 22:59:00,37.0,33.7,30.23,North,0,0.0,0.0,88,0.00,,,0.04,WUHU216HW,2013-01-06 04:59:00,
2013-01-05 23:04:00,36.5,33.2,30.23,North,0,0.0,0.0,88,0.00,,,0.04,WUHU216HW,2013-01-06 05:04:00,
2013-01-05 23:09:00,36.5,33.2,30.23,North,0,0.0,0.0,88,0.00,,,0.04,WUHU216HW,2013-01-06 05:09:00,
2013-01-05 23:50:00,35.2,31.9,30.24,North,0,0.0,0.0,88,0.00,,,0.04,WUHU216HW,2013-01-06 05:50:00,